Terminal Aerodrome Forecast
Issued by NWS Blacksburg, VA

Current Version | Previous Version | Graphics & Text | Print | Product List | Glossary On
Versions: 1 2 3 4 5 6 7 8 9 10 11 12 13 14 15 16 17 18 19 20 21 22 23 24 25 26 27 28 29 30 31 32 33 34 35 36 37 38 39
000
FTUS41 KRNK 281125
TAFBLF
TAF
KBLF 281125Z 2812/0112 08004KT P6SM BKN100
     FM281500 VRB03KT P6SM SCT015 OVC060
     FM282100 20004KT P6SM OVC025
     FM010100 14006KT P6SM SCT012 BKN050
     FM010900 15006KT P6SM BKN009 OVC025=

USA.gov is the U.S. government's official web portal to all federal, state and local government web resources and services.